Terminal Aerodrome Forecast
Issued by NWS Charleston, WV

Current Version | Previous Version | Graphics & Text | Print | Product List | Glossary On
Versions: 1 2 3 4 5 6 7 8 9 10 11 12 13 14 15 16 17 18 19 20 21 22
705
FTUS41 KRLX 290520
TAFEKN
TAF
KEKN 290520Z 2906/3006 00000KT P6SM BKN050
     FM290700 00000KT 5SM BR FEW001 FEW050 BKN120
     FM290800 00000KT 1/4SM FG BKN001
     FM291100 00000KT 3SM BR BKN001
     FM291200 00000KT P6SM BKN130
     FM291700 VRB03KT P6SM VCSH BKN130=

USA.gov is the U.S. government's official web portal to all federal, state and local government web resources and services.